Time;durP1;ratioP1;P1;durP2;ratioP2;P2;SDS_P1;SDS_P2;PMS_P1;PMS_P2;Temp;Humidity;BMP_temperature;BMP_pressure;BME280_temperature;BME280_humidity;BME280_pressure;Samples;Min_cycle;Max_cycle;Signal;HPM_P1;HPM_P2
2021/08/07 00:00:25;;;;;;;2.10;2.00;;;19.80;64.40;;;;;;5033708;28;20037;-86
2021/08/07 00:02:51;;;;;;;2.30;2.20;;;19.70;64.60;;;;;;5029738;28;20454;-86
2021/08/07 00:05:17;;;;;;;2.22;2.13;;;19.60;64.70;;;;;;5036489;28;20049;-86
2021/08/07 00:07:43;;;;;;;2.10;2.00;;;19.60;64.90;;;;;;5034296;28;20026;-85
2021/08/07 00:10:10;;;;;;;2.10;2.00;;;19.50;65.10;;;;;;5035270;28;20032;-84
2021/08/07 00:12:36;;;;;;;1.92;1.83;;;19.50;65.30;;;;;;5035240;28;20393;-85
2021/08/07 00:15:03;;;;;;;4.90;2.00;;;19.40;65.50;;;;;;5030596;28;20486;-85
2021/08/07 00:17:29;;;;;;;2.05;1.95;;;19.40;65.60;;;;;;5031911;28;20045;-85
2021/08/07 00:19:55;;;;;;;1.90;1.80;;;19.40;65.70;;;;;;5036213;28;20040;-84
2021/08/07 00:22:21;;;;;;;2.20;2.10;;;19.30;65.80;;;;;;5034997;28;20132;-84
2021/08/07 00:24:49;;;;;;;2.97;2.20;;;19.30;65.90;;;;;;5033988;28;20034;-84
2021/08/07 00:27:15;;;;;;;1.90;1.80;;;19.30;66.00;;;;;;5034141;28;20044;-83
2021/08/07 00:29:41;;;;;;;2.10;2.00;;;19.30;66.10;;;;;;5030310;28;20044;-84
2021/08/07 00:32:07;;;;;;;2.22;2.03;;;19.30;66.20;;;;;;5036367;28;20025;-84
2021/08/07 00:34:33;;;;;;;2.00;1.90;;;19.30;66.30;;;;;;5034501;28;20391;-84
2021/08/07 00:37:04;;;;;;;2.10;2.00;;;19.20;66.40;;;;;;5035029;28;20025;-85
2021/08/07 00:39:30;;;;;;;1.92;1.83;;;19.20;66.40;;;;;;5032810;28;20044;-84
2021/08/07 00:41:57;;;;;;;2.08;1.98;;;19.20;66.60;;;;;;5030209;28;20034;-84
2021/08/07 00:44:23;;;;;;;1.92;1.83;;;19.20;66.70;;;;;;5033020;28;20049;-85
2021/08/07 00:46:49;;;;;;;1.85;1.75;;;19.20;66.80;;;;;;5034906;28;20403;-82
2021/08/07 00:49:15;;;;;;;2.00;1.90;;;19.20;66.90;;;;;;5034561;28;20025;-84
2021/08/07 00:51:41;;;;;;;1.90;1.80;;;19.10;67.00;;;;;;5016685;28;20049;-85
2021/08/07 00:54:07;;;;;;;1.90;1.80;;;19.10;67.00;;;;;;5032654;28;20040;-84
2021/08/07 00:56:33;;;;;;;2.70;2.50;;;19.10;67.10;;;;;;5031444;28;20503;-84
2021/08/07 00:59:00;;;;;;;1.98;1.88;;;19.10;67.20;;;;;;5036454;28;20130;-83
2021/08/07 01:01:29;;;;;;;1.95;1.85;;;19.10;67.30;;;;;;5032992;28;20033;-85
2021/08/07 01:03:55;;;;;;;2.08;1.98;;;19.10;67.40;;;;;;5020188;28;20025;-83
2021/08/07 01:06:27;;;;;;;2.10;2.00;;;19.10;67.50;;;;;;5021089;28;20474;-84
2021/08/07 01:09:18;;;;;;;1.85;1.75;;;19.00;67.50;;;;;;5019430;28;20018;-84
2021/08/07 01:12:03;;;;;;;1.95;1.85;;;19.00;67.70;;;;;;5027501;28;20060;-84
2021/08/07 01:14:36;;;;;;;2.05;1.95;;;19.00;67.80;;;;;;5048644;28;20029;-85
2021/08/07 01:17:04;;;;;;;1.90;1.80;;;19.00;67.80;;;;;;5036896;28;20040;-83
2021/08/07 01:19:53;;;;;;;2.00;1.90;;;19.00;67.80;;;;;;5038323;28;20020;-84
2021/08/07 01:22:19;;;;;;;2.05;1.95;;;18.90;67.90;;;;;;5035844;28;20038;-84
2021/08/07 01:24:58;;;;;;;2.50;2.40;;;18.90;67.90;;;;;;5035654;28;20052;-85
2021/08/07 01:27:50;;;;;;;1.85;1.75;;;18.90;68.10;;;;;;5018946;28;20401;-85
2021/08/07 01:30:18;;;;;;;2.05;1.95;;;18.90;68.10;;;;;;5033968;28;20044;-84
2021/08/07 01:32:44;;;;;;;1.92;1.83;;;18.90;68.10;;;;;;5033843;28;20045;-85
2021/08/07 01:35:10;;;;;;;2.13;2.03;;;18.80;68.20;;;;;;5049586;28;20377;-83
2021/08/07 01:37:37;;;;;;;2.67;2.50;;;18.80;68.30;;;;;;5039110;28;20045;-84
2021/08/07 01:40:03;;;;;;;2.03;1.92;;;18.70;68.40;;;;;;5003583;28;20037;-86
2021/08/07 01:42:31;;;;;;;2.03;1.92;;;18.70;68.50;;;;;;5038098;28;20053;-84
2021/08/07 01:44:57;;;;;;;2.20;2.10;;;18.70;68.70;;;;;;5034481;28;20393;-84
2021/08/07 01:47:26;;;;;;;1.98;1.88;;;18.70;68.70;;;;;;5037365;28;20034;-83
2021/08/07 01:50:06;;;;;;;2.03;1.92;;;18.60;68.80;;;;;;5037563;28;20032;-83
2021/08/07 01:52:34;;;;;;;2.20;2.10;;;18.60;68.90;;;;;;5036735;28;20052;-85
2021/08/07 01:55:08;;;;;;;2.08;1.98;;;18.60;68.90;;;;;;5035275;28;20032;-83
2021/08/07 01:57:34;;;;;;;1.95;1.85;;;18.60;68.90;;;;;;5035826;28;20056;-84
2021/08/07 02:00:00;;;;;;;1.95;1.85;;;18.50;68.90;;;;;;5016718;28;20033;-83
2021/08/07 02:02:27;;;;;;;2.45;2.35;;;18.50;69.10;;;;;;5030579;28;20037;-85
2021/08/07 02:04:53;;;;;;;2.17;2.08;;;18.40;69.20;;;;;;5024327;28;20394;-84
2021/08/07 02:07:19;;;;;;;1.80;1.70;;;18.40;69.30;;;;;;5031176;28;20506;-83
2021/08/07 02:09:45;;;;;;;2.20;2.10;;;18.40;69.40;;;;;;5031270;28;20033;-85
2021/08/07 02:12:11;;;;;;;2.00;1.90;;;18.30;69.40;;;;;;5028579;28;20036;-84
2021/08/07 02:14:40;;;;;;;1.95;1.85;;;18.30;69.50;;;;;;5030429;28;20036;-84
2021/08/07 02:17:06;;;;;;;2.00;1.90;;;18.30;69.60;;;;;;5031963;28;20030;-84
2021/08/07 02:19:32;;;;;;;2.05;1.95;;;18.20;69.60;;;;;;5028438;28;20030;-85
2021/08/07 02:21:58;;;;;;;2.30;2.10;;;18.20;69.70;;;;;;5027953;28;20376;-85
2021/08/07 02:24:25;;;;;;;2.15;2.05;;;18.20;69.70;;;;;;5029547;28;20049;-84
2021/08/07 02:26:52;;;;;;;2.10;2.00;;;18.10;69.70;;;;;;5027509;28;20486;-85
2021/08/07 02:29:19;;;;;;;2.25;2.15;;;18.10;69.90;;;;;;5031605;28;20033;-84
2021/08/07 02:31:45;;;;;;;2.20;2.10;;;18.00;69.90;;;;;;5027961;28;20030;-85
2021/08/07 02:34:11;;;;;;;1.98;1.88;;;18.10;70.00;;;;;;5023610;28;20052;-84
2021/08/07 02:36:38;;;;;;;3.10;2.35;;;18.00;69.90;;;;;;5030478;28;20411;-84
2021/08/07 02:39:04;;;;;;;2.13;2.03;;;18.00;70.00;;;;;;5030534;28;20024;-84
2021/08/07 02:41:30;;;;;;;2.03;1.92;;;18.00;70.10;;;;;;5035576;28;20037;-85
2021/08/07 02:43:56;;;;;;;6.75;2.35;;;18.00;70.10;;;;;;5051079;28;20209;-83
2021/08/07 02:46:23;;;;;;;2.10;2.00;;;17.90;70.10;;;;;;5018723;28;20136;-84
2021/08/07 02:48:50;;;;;;;2.05;1.95;;;17.90;70.10;;;;;;5035661;28;20085;-85
2021/08/07 02:51:16;;;;;;;2.00;1.90;;;17.90;70.10;;;;;;5017248;28;20044;-85
2021/08/07 02:53:42;;;;;;;1.95;1.85;;;17.90;70.20;;;;;;5031147;28;20475;-85
2021/08/07 02:56:08;;;;;;;2.10;2.00;;;17.90;70.20;;;;;;5036187;28;20052;-83
2021/08/07 02:58:34;;;;;;;2.28;2.17;;;17.80;70.30;;;;;;5028441;28;20489;-83
2021/08/07 03:01:00;;;;;;;2.13;2.03;;;17.80;70.30;;;;;;5040925;28;20030;-83
2021/08/07 03:03:26;;;;;;;1.98;1.88;;;17.90;70.40;;;;;;5037069;28;20080;-85
2021/08/07 03:05:52;;;;;;;2.03;1.92;;;17.90;70.40;;;;;;5047747;28;20046;-84
2021/08/07 03:08:18;;;;;;;2.08;1.98;;;17.90;70.40;;;;;;5038174;28;20029;-85
2021/08/07 03:10:45;;;;;;;2.03;1.92;;;17.90;70.40;;;;;;5036422;28;20045;-86
2021/08/07 03:13:11;;;;;;;2.05;1.95;;;17.90;70.40;;;;;;5034914;28;20033;-83
2021/08/07 03:15:37;;;;;;;2.08;1.98;;;17.90;70.40;;;;;;5035652;28;20501;-84
2021/08/07 03:18:03;;;;;;;1.92;1.83;;;17.90;70.50;;;;;;5032515;28;20037;-84
2021/08/07 03:20:32;;;;;;;2.15;2.05;;;17.90;70.50;;;;;;5033905;28;20056;-87
2021/08/07 03:23:04;;;;;;;2.00;1.90;;;17.90;70.50;;;;;;5050815;28;20064;-84
2021/08/07 03:25:30;;;;;;;2.05;1.95;;;17.90;70.60;;;;;;5035480;28;20041;-85
2021/08/07 03:27:56;;;;;;;2.03;1.92;;;17.90;70.60;;;;;;5034041;28;20032;-82
2021/08/07 03:30:23;;;;;;;2.10;2.00;;;17.90;70.60;;;;;;5033144;28;20041;-84
2021/08/07 03:32:49;;;;;;;1.88;1.77;;;17.90;70.70;;;;;;4997269;28;20040;-84
2021/08/07 03:35:15;;;;;;;2.20;2.10;;;17.90;70.60;;;;;;5036404;28;20073;-84
2021/08/07 03:37:41;;;;;;;2.05;1.95;;;17.90;70.70;;;;;;5034611;28;20030;-84
2021/08/07 03:40:08;;;;;;;2.03;1.92;;;17.90;70.80;;;;;;5034425;28;20363;-85
2021/08/07 03:42:34;;;;;;;2.22;2.13;;;17.90;70.80;;;;;;5035560;28;20043;-84
2021/08/07 03:45:01;;;;;;;10.32;2.15;;;17.90;71.60;;;;;;5031504;28;20041;-85
2021/08/07 03:47:27;;;;;;;2.03;1.92;;;17.90;70.80;;;;;;5033659;28;20396;-85
2021/08/07 03:49:53;;;;;;;1.90;1.80;;;17.90;70.90;;;;;;5036762;28;20037;-84
2021/08/07 03:52:19;;;;;;;1.88;1.77;;;17.90;70.90;;;;;;5034417;28;20394;-85
2021/08/07 03:54:45;;;;;;;2.08;1.98;;;17.90;71.00;;;;;;5035549;28;20029;-84
2021/08/07 03:57:11;;;;;;;1.92;1.83;;;17.90;71.00;;;;;;5033819;28;20032;-84
2021/08/07 03:59:37;;;;;;;2.15;2.05;;;17.90;70.90;;;;;;5032370;28;20037;-85
2021/08/07 04:02:03;;;;;;;1.92;1.83;;;17.90;71.00;;;;;;5036711;28;20394;-85
2021/08/07 04:04:29;;;;;;;2.42;2.30;;;18.00;71.10;;;;;;5034188;28;20044;-85
2021/08/07 04:06:55;;;;;;;1.90;1.80;;;18.00;71.10;;;;;;5035182;28;20467;-84
2021/08/07 04:09:21;;;;;;;4.00;2.03;;;18.00;71.90;;;;;;5035101;28;20036;-84
2021/08/07 04:11:47;;;;;;;1.80;1.70;;;18.00;71.10;;;;;;5046810;28;20478;-86
2021/08/07 04:14:14;;;;;;;2.03;1.92;;;18.00;71.10;;;;;;5037059;28;20032;-84
2021/08/07 04:16:40;;;;;;;2.00;1.90;;;18.00;71.10;;;;;;5031342;28;20037;-84
2021/08/07 04:19:06;;;;;;;1.92;1.83;;;18.00;71.10;;;;;;5034017;28;20021;-84
2021/08/07 04:21:32;;;;;;;2.10;2.00;;;18.00;71.20;;;;;;5035043;28;20039;-84
2021/08/07 04:23:58;;;;;;;2.05;1.95;;;18.00;71.30;;;;;;5030659;28;20029;-85
2021/08/07 04:26:24;;;;;;;2.00;1.90;;;18.00;71.30;;;;;;5034842;28;20040;-84
2021/08/07 04:28:50;;;;;;;2.00;1.90;;;18.00;71.40;;;;;;5035547;28;20037;-83
2021/08/07 04:31:16;;;;;;;1.90;1.80;;;18.00;71.50;;;;;;5034285;28;20478;-82
2021/08/07 04:33:42;;;;;;;1.80;1.70;;;18.00;71.40;;;;;;5033725;28;21554;-84
2021/08/07 04:36:08;;;;;;;1.80;1.70;;;18.00;71.50;;;;;;5033108;28;20029;-86
2021/08/07 04:38:34;;;;;;;1.80;1.70;;;18.00;71.50;;;;;;5032850;28;20036;-81
2021/08/07 04:41:00;;;;;;;1.90;1.80;;;18.00;71.50;;;;;;5034438;28;20033;-85
2021/08/07 04:43:28;;;;;;;2.10;2.00;;;18.10;71.60;;;;;;5017708;28;20039;-85
2021/08/07 04:45:54;;;;;;;2.00;1.90;;;18.10;71.60;;;;;;5034368;28;20403;-84
2021/08/07 04:48:20;;;;;;;2.03;1.92;;;18.10;71.70;;;;;;5034617;28;20025;-84
2021/08/07 04:50:46;;;;;;;2.08;1.98;;;18.10;71.70;;;;;;5030721;28;20037;-83
2021/08/07 04:53:13;;;;;;;1.88;1.77;;;18.10;71.80;;;;;;5036638;28;20025;-84
2021/08/07 04:55:39;;;;;;;1.80;1.70;;;18.10;71.80;;;;;;5033614;28;20033;-85
2021/08/07 04:58:05;;;;;;;1.90;1.80;;;18.10;71.80;;;;;;5016834;28;20041;-85
2021/08/07 05:00:31;;;;;;;1.70;1.60;;;18.10;71.80;;;;;;5033087;28;20029;-85
2021/08/07 05:02:57;;;;;;;1.88;1.77;;;18.10;71.90;;;;;;5031609;28;20041;-84
2021/08/07 05:05:23;;;;;;;1.90;1.80;;;18.10;71.90;;;;;;5035072;28;20048;-85
2021/08/07 05:07:49;;;;;;;2.05;1.95;;;18.00;71.90;;;;;;5033617;28;20497;-84
2021/08/07 05:10:16;;;;;;;1.90;1.80;;;18.10;72.00;;;;;;5034260;28;20048;-85
2021/08/07 05:12:42;;;;;;;1.80;1.70;;;18.10;72.00;;;;;;5034569;28;20025;-85
2021/08/07 05:15:08;;;;;;;1.90;1.80;;;18.10;72.10;;;;;;5031328;28;20034;-85
2021/08/07 05:17:34;;;;;;;1.90;1.80;;;18.10;72.10;;;;;;5031911;28;20037;-86
2021/08/07 05:20:01;;;;;;;2.13;1.92;;;18.10;72.10;;;;;;5036430;28;20040;-86
2021/08/07 05:22:27;;;;;;;2.03;1.92;;;18.20;72.20;;;;;;5034534;28;20029;-85
2021/08/07 05:24:53;;;;;;;2.50;2.30;;;18.20;72.20;;;;;;5016499;28;20060;-85
2021/08/07 05:27:19;;;;;;;2.42;2.33;;;18.20;72.20;;;;;;5034063;28;20036;-85
2021/08/07 05:29:45;;;;;;;2.10;2.00;;;18.20;72.20;;;;;;5030371;28;20025;-85
2021/08/07 05:32:11;;;;;;;1.92;1.83;;;18.20;72.20;;;;;;5017938;28;20478;-85
2021/08/07 05:34:37;;;;;;;2.20;2.05;;;18.30;72.30;;;;;;5034723;28;20041;-84
2021/08/07 05:37:03;;;;;;;1.80;1.70;;;18.30;72.30;;;;;;5034365;28;20030;-84
2021/08/07 05:39:29;;;;;;;2.10;2.00;;;18.30;72.30;;;;;;5032981;28;20040;-85
2021/08/07 05:41:55;;;;;;;2.65;1.70;;;18.30;72.30;;;;;;5028581;28;20030;-84
2021/08/07 05:44:22;;;;;;;1.83;1.73;;;18.30;72.30;;;;;;5033806;28;20029;-85
2021/08/07 05:46:48;;;;;;;1.98;1.88;;;18.30;72.30;;;;;;5033235;28;20060;-85
2021/08/07 05:49:14;;;;;;;1.75;1.65;;;18.30;72.40;;;;;;5034492;28;20025;-85
2021/08/07 05:51:40;;;;;;;1.70;1.60;;;18.30;72.50;;;;;;5020280;28;20049;-85
2021/08/07 05:54:06;;;;;;;1.75;1.65;;;18.30;72.50;;;;;;5016103;28;20044;-84
2021/08/07 05:56:32;;;;;;;1.77;1.67;;;18.30;72.50;;;;;;5018413;28;20425;-84
2021/08/07 05:58:58;;;;;;;2.10;2.00;;;18.40;72.60;;;;;;5039230;28;20040;-85
2021/08/07 06:01:24;;;;;;;1.77;1.67;;;18.40;72.50;;;;;;5037026;28;20037;-84
2021/08/07 06:03:50;;;;;;;4.18;1.85;;;18.40;72.60;;;;;;5019924;28;20036;-86
2021/08/07 06:06:17;;;;;;;2.10;2.00;;;18.40;72.60;;;;;;5018997;28;20041;-85
2021/08/07 06:08:43;;;;;;;2.05;1.95;;;18.30;72.60;;;;;;5032504;28;20045;-85
2021/08/07 06:11:09;;;;;;;2.35;2.15;;;18.40;73.50;;;;;;5038234;28;20036;-86
2021/08/07 06:13:35;;;;;;;2.03;1.92;;;18.40;72.70;;;;;;5034580;28;20064;-85
2021/08/07 06:16:01;;;;;;;2.08;1.98;;;18.50;72.70;;;;;;5035734;28;20041;-85
2021/08/07 06:18:27;;;;;;;2.08;1.98;;;18.50;72.60;;;;;;5036199;28;20056;-85
2021/08/07 06:20:53;;;;;;;2.10;2.00;;;18.50;72.60;;;;;;5033117;28;20045;-85
2021/08/07 06:23:19;;;;;;;1.90;1.80;;;18.60;72.70;;;;;;5037410;28;20390;-85
2021/08/07 06:25:45;;;;;;;1.95;1.85;;;18.60;72.70;;;;;;5035949;28;20082;-85
2021/08/07 06:28:11;;;;;;;1.90;1.80;;;18.60;72.70;;;;;;5036997;28;20394;-85
2021/08/07 06:30:43;;;;;;;2.05;1.95;;;18.60;72.70;;;;;;5036653;28;20029;-86
2021/08/07 06:33:09;;;;;;;1.98;1.88;;;18.60;72.70;;;;;;5035026;28;20501;-86
2021/08/07 06:35:35;;;;;;;1.95;1.85;;;18.70;72.80;;;;;;5016468;28;20376;-86
2021/08/07 06:38:01;;;;;;;2.00;1.90;;;18.70;72.70;;;;;;5037440;28;20052;-85
2021/08/07 06:40:28;;;;;;;1.92;1.83;;;18.70;72.70;;;;;;5036907;28;20034;-86
2021/08/07 06:42:54;;;;;;;2.10;2.00;;;18.80;72.80;;;;;;5036114;28;20049;-85
2021/08/07 06:45:21;;;;;;;2.10;2.00;;;18.90;72.80;;;;;;5036392;28;20479;-85
2021/08/07 06:47:47;;;;;;;2.40;2.28;;;18.90;72.60;;;;;;5031667;28;20038;-85
2021/08/07 06:50:13;;;;;;;8.68;2.30;;;19.00;72.60;;;;;;5037046;28;20093;-85
2021/08/07 06:52:39;;;;;;;2.10;2.00;;;19.00;72.60;;;;;;5017523;28;20128;-85
2021/08/07 06:55:05;;;;;;;2.33;2.22;;;19.00;72.60;;;;;;5036657;28;20030;-85
2021/08/07 06:57:31;;;;;;;2.00;1.90;;;19.00;72.60;;;;;;5036490;28;20039;-85
2021/08/07 07:00:02;;;;;;;2.00;1.90;;;19.00;72.70;;;;;;5032915;28;20485;-85
2021/08/07 07:02:28;;;;;;;3.92;2.00;;;19.00;72.70;;;;;;5034725;28;20501;-85
2021/08/07 07:04:54;;;;;;;2.08;1.98;;;19.00;72.70;;;;;;5037258;28;20037;-85
2021/08/07 07:07:20;;;;;;;2.42;2.33;;;19.10;72.70;;;;;;5036355;28;20276;-85
2021/08/07 07:09:46;;;;;;;2.00;1.90;;;19.10;72.60;;;;;;5036640;28;20030;-85
2021/08/07 07:12:13;;;;;;;1.92;1.83;;;19.20;72.60;;;;;;5034122;28;20466;-86
2021/08/07 07:14:40;;;;;;;2.30;2.20;;;19.30;72.60;;;;;;5033164;28;20477;-85
2021/08/07 07:17:06;;;;;;;2.33;2.10;;;19.30;72.50;;;;;;5036085;28;20029;-85
2021/08/07 07:19:32;;;;;;;2.08;1.98;;;19.30;73.30;;;;;;5035793;28;20038;-85
2021/08/07 07:21:58;;;;;;;2.15;2.05;;;19.30;72.50;;;;;;5036123;28;20459;-84
2021/08/07 07:24:24;;;;;;;2.40;2.30;;;19.40;72.50;;;;;;5036219;28;20033;-85
2021/08/07 07:26:50;;;;;;;2.20;2.10;;;19.60;72.30;;;;;;5031655;28;20045;-84
2021/08/07 07:29:17;;;;;;;2.30;2.20;;;19.80;72.20;;;;;;5037936;28;20412;-85
2021/08/07 07:31:43;;;;;;;2.75;2.65;;;20.00;71.80;;;;;;5034276;28;20554;-85
2021/08/07 07:34:09;;;;;;;3.83;3.63;;;20.30;71.40;;;;;;5035533;28;20041;-85
2021/08/07 07:36:35;;;;;;;3.22;3.13;;;20.50;71.10;;;;;;5035829;28;20451;-84
2021/08/07 07:39:01;;;;;;;4.25;3.90;;;20.60;70.90;;;;;;5031714;28;20028;-85
2021/08/07 07:41:27;;;;;;;2.92;2.83;;;20.80;70.60;;;;;;5017960;28;20032;-86
2021/08/07 07:43:53;;;;;;;2.72;2.63;;;21.00;70.40;;;;;;5033506;28;20038;-84
2021/08/07 07:46:19;;;;;;;2.80;2.70;;;21.20;70.10;;;;;;5035220;28;20490;-87
2021/08/07 07:48:46;;;;;;;3.35;3.25;;;21.30;70.00;;;;;;5033217;28;20041;-85
2021/08/07 07:51:12;;;;;;;3.67;3.47;;;21.30;69.80;;;;;;5032785;28;20068;-85
2021/08/07 07:53:38;;;;;;;3.67;3.38;;;21.30;69.70;;;;;;5032637;28;20025;-85
2021/08/07 07:56:04;;;;;;;3.40;3.30;;;21.40;69.90;;;;;;5037348;28;20056;-84
2021/08/07 07:58:30;;;;;;;3.28;3.17;;;21.30;70.00;;;;;;5034422;28;20394;-84
2021/08/07 08:00:56;;;;;;;3.63;3.42;;;21.30;70.10;;;;;;5001753;28;20048;-84
2021/08/07 08:03:22;;;;;;;3.40;3.30;;;21.30;70.10;;;;;;5035095;28;20029;-85
2021/08/07 08:05:48;;;;;;;4.50;4.30;;;21.40;70.00;;;;;;5013159;28;20060;-85
2021/08/07 08:08:15;;;;;;;3.63;3.45;;;21.50;69.80;;;;;;5037366;28;20025;-85
2021/08/07 08:10:41;;;;;;;4.35;4.15;;;21.70;69.60;;;;;;5034308;28;20037;-86
2021/08/07 08:13:08;;;;;;;3.30;3.20;;;21.90;69.20;;;;;;5015991;28;20034;-85
2021/08/07 08:15:39;;;;;;;3.72;3.45;;;22.10;68.90;;;;;;5034862;28;20033;-84
2021/08/07 08:18:06;;;;;;;3.85;3.65;;;22.20;68.60;;;;;;5000478;28;20041;-85
2021/08/07 08:20:32;;;;;;;3.00;2.90;;;22.10;68.40;;;;;;5046376;28;20036;-85
2021/08/07 08:22:59;;;;;;;3.15;3.00;;;22.00;68.60;;;;;;5054603;28;20470;-85
2021/08/07 08:25:25;;;;;;;3.28;3.17;;;21.90;68.90;;;;;;5005071;28;20045;-86
2021/08/07 08:27:51;;;;;;;3.25;3.15;;;21.90;69.10;;;;;;5032814;28;20029;-83
2021/08/07 08:30:17;;;;;;;3.58;2.95;;;21.90;69.10;;;;;;5033709;28;20402;-85
2021/08/07 08:32:43;;;;;;;3.40;3.20;;;22.00;68.90;;;;;;5012332;28;20054;-85
2021/08/07 08:35:10;;;;;;;3.80;3.60;;;22.10;68.60;;;;;;5036901;28;20033;-85
2021/08/07 08:37:37;;;;;;;3.17;3.08;;;22.10;68.30;;;;;;5034470;28;20044;-85
2021/08/07 08:40:05;;;;;;;3.33;3.22;;;22.20;68.40;;;;;;5035253;28;20037;-85
2021/08/07 08:42:31;;;;;;;3.92;3.72;;;22.30;68.20;;;;;;5033368;28;20052;-84
2021/08/07 08:44:57;;;;;;;4.20;4.00;;;22.40;67.90;;;;;;5012652;28;20045;-85
2021/08/07 08:47:23;;;;;;;3.92;3.72;;;22.50;67.70;;;;;;5033260;28;20109;-85
2021/08/07 08:49:52;;;;;;;3.80;3.60;;;22.50;67.60;;;;;;5066016;28;20056;-85
2021/08/07 08:52:24;;;;;;;8.15;3.67;;;22.60;67.60;;;;;;5034719;28;20026;-82
2021/08/07 08:54:52;;;;;;;3.90;3.70;;;22.50;67.60;;;;;;5034160;28;20370;-85
2021/08/07 08:57:19;;;;;;;3.53;3.40;;;22.50;67.70;;;;;;5033926;28;20032;-86
2021/08/07 08:59:45;;;;;;;3.88;3.67;;;22.50;67.70;;;;;;5029611;28;20021;-85
2021/08/07 09:02:11;;;;;;;8.18;4.43;;;22.60;67.70;;;;;;5050536;28;20033;-86
2021/08/07 09:04:37;;;;;;;3.67;3.47;;;22.60;68.40;;;;;;5034870;28;20033;-85
2021/08/07 09:07:04;;;;;;;3.75;3.55;;;22.80;67.10;;;;;;5035818;28;20033;-86
2021/08/07 09:09:39;;;;;;;3.65;3.45;;;22.90;66.70;;;;;;5023865;28;20030;-82
2021/08/07 09:12:06;;;;;;;3.85;3.65;;;22.90;66.60;;;;;;5045800;28;20359;-85
2021/08/07 09:14:36;;;;;;;4.03;3.83;;;22.90;66.60;;;;;;5031065;28;20037;-85
2021/08/07 09:17:04;;;;;;;10.15;4.18;;;23.00;66.50;;;;;;5049033;28;20041;-85
2021/08/07 09:19:59;;;;;;;4.07;3.70;;;23.10;66.30;;;;;;5034553;28;20025;-85
2021/08/07 09:22:30;;;;;;;4.05;3.85;;;23.00;66.00;;;;;;5030906;28;20394;-85
2021/08/07 09:24:56;;;;;;;;;;;23.10;66.00;;;;;;5020069;28;20033;-85
2021/08/07 09:27:28;;;;;;;12.55;4.20;;;23.00;65.90;;;;;;5036854;28;19920;-85
2021/08/07 09:29:54;;;;;;;3.58;3.42;;;23.10;66.00;;;;;;5019024;28;20029;-85
2021/08/07 09:32:20;;;;;;;7.93;4.03;;;23.10;65.80;;;;;;5037540;28;20040;-87
2021/08/07 09:35:06;;;;;;;3.40;3.20;;;23.10;65.60;;;;;;5037276;28;20029;-85
2021/08/07 09:37:32;;;;;;;3.97;3.67;;;23.00;65.60;;;;;;5037978;28;20482;-84
2021/08/07 09:40:00;;;;;;;3.63;3.45;;;22.80;65.90;;;;;;5038026;28;20056;-85
2021/08/07 09:42:31;;;;;;;3.53;3.35;;;22.60;66.30;;;;;;5020040;28;20044;-84
2021/08/07 09:45:08;;;;;;;;;;;22.40;66.50;;;;;;5033050;28;20052;-85
2021/08/07 09:47:35;;;;;;;3.25;3.15;;;22.30;66.70;;;;;;5033712;28;19917;-85
2021/08/07 09:50:01;;;;;;;3.05;2.95;;;22.10;66.90;;;;;;5045688;28;20056;-83
2021/08/07 09:52:37;;;;;;;3.10;3.00;;;22.00;67.10;;;;;;5039296;28;20029;-85
2021/08/07 09:55:03;;;;;;;4.28;3.25;;;21.80;67.10;;;;;;5036572;28;20501;-85
2021/08/07 09:57:30;;;;;;;4.03;3.33;;;21.80;67.10;;;;;;5037776;28;20029;-85
2021/08/07 09:59:56;;;;;;;3.42;3.17;;;21.80;67.00;;;;;;5032495;28;20034;-84
2021/08/07 10:02:35;;;;;;;3.78;3.58;;;21.90;66.90;;;;;;5020371;28;20490;-85
2021/08/07 10:05:01;;;;;;;4.13;3.70;;;22.00;66.70;;;;;;5037353;28;20467;-85
2021/08/07 10:07:27;;;;;;;3.40;3.30;;;22.20;66.40;;;;;;5037084;28;20494;-85
2021/08/07 10:09:54;;;;;;;3.97;3.78;;;22.50;65.90;;;;;;5035989;28;20038;-85
2021/08/07 10:12:20;;;;;;;4.10;3.90;;;22.90;65.20;;;;;;5037244;28;20033;-85
2021/08/07 10:14:46;;;;;;;4.00;3.80;;;23.20;64.70;;;;;;5033018;28;20037;-85
2021/08/07 10:17:15;;;;;;;4.13;3.92;;;23.50;64.20;;;;;;5037589;28;20045;-85
2021/08/07 10:19:41;;;;;;;10.55;5.03;;;23.80;63.60;;;;;;5019869;28;20459;-85
2021/08/07 10:22:09;;;;;;;4.75;4.55;;;24.10;63.20;;;;;;5036060;28;20382;-86
2021/08/07 10:24:36;;;;;;;4.75;4.55;;;24.30;62.80;;;;;;5037385;28;20033;-85
2021/08/07 10:27:03;;;;;;;5.13;4.93;;;24.50;62.30;;;;;;5034274;28;20505;-85
2021/08/07 10:29:43;;;;;;;5.90;5.60;;;24.80;61.90;;;;;;5034817;28;20123;-85
2021/08/07 10:32:09;;;;;;;5.97;5.68;;;24.90;61.50;;;;;;5037372;28;20483;-84
2021/08/07 10:34:36;;;;;;;5.68;5.40;;;24.90;61.30;;;;;;5019221;28;20499;-86
2021/08/07 10:37:03;;;;;;;7.47;7.18;;;24.80;61.40;;;;;;5036543;28;20041;-84
2021/08/07 10:39:30;;;;;;;4.03;3.83;;;24.50;61.80;;;;;;5036832;28;20040;-84
2021/08/07 10:42:00;;;;;;;4.90;4.70;;;24.20;62.60;;;;;;5033389;28;20037;-84
2021/08/07 10:44:27;;;;;;;3.60;3.40;;;23.80;63.40;;;;;;5035533;28;20030;-84
2021/08/07 10:46:54;;;;;;;3.97;3.78;;;23.60;64.10;;;;;;5035787;28;20052;-85
2021/08/07 10:49:37;;;;;;;3.25;3.15;;;23.40;64.50;;;;;;5036853;28;20046;-88
2021/08/07 10:52:21;;;;;;;4.40;4.20;;;23.40;64.80;;;;;;5036708;28;20050;-86
2021/08/07 10:54:51;;;;;;;3.45;3.28;;;23.50;64.70;;;;;;5035448;28;20022;-85
2021/08/07 10:57:41;;;;;;;3.35;3.15;;;23.60;64.40;;;;;;5032233;28;20032;-85
2021/08/07 11:00:15;;;;;;;4.10;3.90;;;23.80;64.30;;;;;;5034233;28;20414;-85
2021/08/07 11:02:45;;;;;;;4.32;4.13;;;23.80;64.10;;;;;;5032976;28;20402;-87
2021/08/07 11:05:11;;;;;;;4.60;4.40;;;24.00;64.20;;;;;;5038443;28;20026;-86
2021/08/07 11:07:37;;;;;;;5.10;4.80;;;24.00;64.00;;;;;;5035240;28;20425;-86
2021/08/07 11:10:11;;;;;;;5.55;5.32;;;24.00;63.80;;;;;;5036250;28;20025;-86
2021/08/07 11:12:40;;;;;;;4.30;4.10;;;24.00;63.80;;;;;;5034777;28;20047;-85
2021/08/07 11:15:28;;;;;;;4.43;4.22;;;24.10;63.80;;;;;;5015726;28;20044;-86
2021/08/07 11:17:54;;;;;;;4.00;3.80;;;24.10;63.60;;;;;;5017047;28;20022;-86
2021/08/07 11:20:37;;;;;;;4.32;4.13;;;24.00;63.50;;;;;;5036448;28;20036;-86
2021/08/07 11:23:04;;;;;;;4.20;3.83;;;23.90;63.70;;;;;;5036073;28;20041;-87
2021/08/07 11:25:30;;;;;;;3.97;3.78;;;23.70;63.90;;;;;;5034103;28;20033;-85
2021/08/07 11:27:58;;;;;;;3.67;3.47;;;23.40;64.30;;;;;;5017964;28;20494;-85
2021/08/07 11:30:39;;;;;;;3.60;3.45;;;23.20;64.60;;;;;;5034432;28;20381;-85
2021/08/07 11:33:08;;;;;;;2.75;2.65;;;22.90;65.00;;;;;;5030889;28;20042;-85
2021/08/07 11:35:35;;;;;;;3.05;2.95;;;22.80;65.20;;;;;;5032455;28;20478;-85
2021/08/07 11:38:13;;;;;;;4.97;3.00;;;22.80;65.20;;;;;;5037671;28;20140;-85
2021/08/07 11:40:42;;;;;;;6.03;3.35;;;22.70;65.20;;;;;;5035361;28;20029;-85
2021/08/07 11:43:30;;;;;;;2.92;2.83;;;22.60;65.30;;;;;;5034650;28;20029;-85
2021/08/07 11:46:00;;;;;;;3.00;2.80;;;22.40;65.50;;;;;;5033606;28;20037;-85
2021/08/07 11:48:26;;;;;;;2.55;2.45;;;22.40;65.80;;;;;;5034795;28;20041;-84
2021/08/07 11:50:53;;;;;;;2.80;2.70;;;22.50;65.70;;;;;;5031887;28;20033;-82
2021/08/07 11:53:20;;;;;;;3.05;2.95;;;22.70;65.50;;;;;;5019834;28;20489;-87
2021/08/07 11:56:12;;;;;;;4.03;3.83;;;22.90;65.00;;;;;;5035171;28;20404;-85
2021/08/07 11:58:46;;;;;;;3.90;3.70;;;23.20;64.70;;;;;;5034209;28;20163;-85
2021/08/07 12:01:13;;;;;;;3.55;3.35;;;23.30;64.30;;;;;;5033860;28;20025;-84
2021/08/07 12:03:43;;;;;;;3.95;3.75;;;23.50;64.20;;;;;;5034649;28;20041;-85
2021/08/07 12:06:10;;;;;;;4.03;3.83;;;23.60;63.90;;;;;;5033417;28;20044;-85
2021/08/07 12:08:36;;;;;;;4.70;4.50;;;23.80;63.60;;;;;;5031682;28;20041;-85
2021/08/07 12:11:07;;;;;;;3.90;3.70;;;23.70;63.60;;;;;;5035746;28;20025;-86
2021/08/07 12:13:39;;;;;;;4.00;3.80;;;23.60;63.70;;;;;;5035308;28;20410;-85
2021/08/07 12:16:15;;;;;;;3.83;3.63;;;23.40;64.00;;;;;;5017432;28;20028;-85
2021/08/07 12:18:44;;;;;;;2.83;2.72;;;23.00;64.40;;;;;;5035295;28;20056;-87
2021/08/07 12:21:14;;;;;;;2.50;2.40;;;22.70;65.00;;;;;;5033735;28;20471;-85
2021/08/07 12:23:48;;;;;;;3.58;3.40;;;22.50;65.50;;;;;;5031580;28;20068;-85
2021/08/07 12:26:15;;;;;;;3.05;2.95;;;22.30;65.90;;;;;;5035778;28;20104;-85
2021/08/07 12:28:41;;;;;;;3.40;3.30;;;22.30;65.90;;;;;;5035051;28;20052;-86
2021/08/07 12:31:07;;;;;;;2.97;2.88;;;22.50;65.80;;;;;;5032420;28;20033;-85
2021/08/07 12:33:37;;;;;;;2.92;2.83;;;22.70;65.40;;;;;;5033641;28;20048;-85
2021/08/07 12:36:14;;;;;;;3.10;3.00;;;22.90;65.10;;;;;;5029082;28;20401;-85
2021/08/07 12:38:46;;;;;;;4.40;4.20;;;23.20;64.70;;;;;;5046288;28;20057;-85
2021/08/07 12:41:14;;;;;;;3.95;3.75;;;23.40;64.20;;;;;;5036427;28;20394;-85
2021/08/07 12:43:40;;;;;;;4.75;4.55;;;23.60;63.90;;;;;;5017897;28;20033;-85
2021/08/07 12:46:14;;;;;;;3.78;3.58;;;23.70;63.70;;;;;;5039225;28;20409;-85
2021/08/07 12:48:52;;;;;;;3.53;3.38;;;23.90;63.50;;;;;;5042581;28;20048;-84
2021/08/07 12:51:25;;;;;;;4.05;3.85;;;24.00;63.30;;;;;;5034328;28;20044;-86